Terminal Aerodrome Forecast
Issued by NWS

Home | Current Version | Previous Version | Text Only | Print | Product List | Glossary On
Versions: 1 2 3 4 5 6 7 8 9 10 11 12 13 14 15 16 17 18 19 20 21 22 23
118
FTUS45 KCYS 141726
TAFLAR
TAF
KLAR 141726Z 1418/1518 28026G38KT P6SM BKN070
     FM150200 27015KT P6SM BKN040
     FM151500 27027G37KT P6SM BKN100=

USA.gov is the U.S. government's official web portal to all federal, state and local government web resources and services.